sensor_id;sensor_type;location;lat;lon;timestamp;pressure;altitude;pressure_sealevel;temperature;humidity
60874;BME280;46715;40.642;-7.920;2023-01-29T00:01:05;96916.88;;;6.26;58.98
60874;BME280;46715;40.642;-7.920;2023-01-29T00:03:06;96907.06;;;6.17;59.28
60874;BME280;46715;40.642;-7.920;2023-01-29T00:05:06;96911.09;;;6.12;58.26
60874;BME280;46715;40.642;-7.920;2023-01-29T00:07:07;96918.19;;;6.17;58.88
60874;BME280;46715;40.642;-7.920;2023-01-29T00:09:08;96907.06;;;6.17;58.68
60874;BME280;46715;40.642;-7.920;2023-01-29T00:11:09;96916.47;;;5.99;59.02
60874;BME280;46715;40.642;-7.920;2023-01-29T00:13:10;96901.84;;;6.05;58.34
60874;BME280;46715;40.642;-7.920;2023-01-29T00:15:10;96909.47;;;6.00;58.90
60874;BME280;46715;40.642;-7.920;2023-01-29T00:17:11;96908.31;;;5.95;57.40
60874;BME280;46715;40.642;-7.920;2023-01-29T00:19:12;96912.94;;;5.93;57.81
60874;BME280;46715;40.642;-7.920;2023-01-29T00:21:13;96915.06;;;5.96;57.31
60874;BME280;46715;40.642;-7.920;2023-01-29T00:23:15;96909.78;;;5.91;57.96
60874;BME280;46715;40.642;-7.920;2023-01-29T00:25:15;96907.44;;;5.71;58.03
60874;BME280;46715;40.642;-7.920;2023-01-29T00:27:16;96904.66;;;5.73;58.45
60874;BME280;46715;40.642;-7.920;2023-01-29T00:29:17;96914.13;;;5.79;57.44
60874;BME280;46715;40.642;-7.920;2023-01-29T00:31:19;96908.53;;;5.63;57.52
60874;BME280;46715;40.642;-7.920;2023-01-29T00:33:20;96900.59;;;5.65;58.16
60874;BME280;46715;40.642;-7.920;2023-01-29T00:35:20;96919.41;;;5.54;58.06
60874;BME280;46715;40.642;-7.920;2023-01-29T00:37:21;96899.22;;;5.62;58.00
60874;BME280;46715;40.642;-7.920;2023-01-29T00:39:22;96901.66;;;5.57;57.77
60874;BME280;46715;40.642;-7.920;2023-01-29T00:41:26;96904.31;;;5.51;58.07
60874;BME280;46715;40.642;-7.920;2023-01-29T00:43:45;96902.72;;;5.68;57.33
60874;BME280;46715;40.642;-7.920;2023-01-29T00:46:04;96896.41;;;5.64;56.91
60874;BME280;46715;40.642;-7.920;2023-01-29T00:48:05;96890.38;;;5.52;57.26
60874;BME280;46715;40.642;-7.920;2023-01-29T00:50:07;96906.22;;;5.43;56.92
60874;BME280;46715;40.642;-7.920;2023-01-29T00:52:08;96889.25;;;5.47;56.66
60874;BME280;46715;40.642;-7.920;2023-01-29T00:54:27;96883.28;;;5.47;57.06
60874;BME280;46715;40.642;-7.920;2023-01-29T00:56:28;96887.97;;;5.38;57.02
60874;BME280;46715;40.642;-7.920;2023-01-29T00:58:29;96891.84;;;5.47;56.88
60874;BME280;46715;40.642;-7.920;2023-01-29T01:00:33;96894.63;;;5.46;56.92
60874;BME280;46715;40.642;-7.920;2023-01-29T01:02:34;96895.19;;;5.48;56.87
60874;BME280;46715;40.642;-7.920;2023-01-29T01:04:53;96892.19;;;5.51;56.83
60874;BME280;46715;40.642;-7.920;2023-01-29T01:06:54;96904.69;;;5.54;56.68
60874;BME280;46715;40.642;-7.920;2023-01-29T01:08:54;96886.53;;;5.42;56.88
60874;BME280;46715;40.642;-7.920;2023-01-29T01:11:14;96893.19;;;5.32;57.37
60874;BME280;46715;40.642;-7.920;2023-01-29T01:13:14;96889.47;;;5.46;56.96
60874;BME280;46715;40.642;-7.920;2023-01-29T01:15:15;96888.41;;;5.35;57.56
60874;BME280;46715;40.642;-7.920;2023-01-29T01:17:16;96900.69;;;5.21;58.21
60874;BME280;46715;40.642;-7.920;2023-01-29T01:19:17;96904.78;;;5.29;57.87
60874;BME280;46715;40.642;-7.920;2023-01-29T01:21:18;96897.09;;;5.22;58.59
60874;BME280;46715;40.642;-7.920;2023-01-29T01:23:18;96899.91;;;5.21;58.26
60874;BME280;46715;40.642;-7.920;2023-01-29T01:25:19;96899.91;;;5.21;58.26
60874;BME280;46715;40.642;-7.920;2023-01-29T01:27:20;96900.97;;;5.13;58.50
60874;BME280;46715;40.642;-7.920;2023-01-29T01:29:21;96899.28;;;5.07;58.63
60874;BME280;46715;40.642;-7.920;2023-01-29T01:31:22;96908.47;;;5.03;59.01
60874;BME280;46715;40.642;-7.920;2023-01-29T01:33:23;96906.94;;;4.95;59.43
60874;BME280;46715;40.642;-7.920;2023-01-29T01:35:23;96896.16;;;4.98;59.53
60874;BME280;46715;40.642;-7.920;2023-01-29T01:37:24;96891.38;;;5.02;59.45
60874;BME280;46715;40.642;-7.920;2023-01-29T01:39:25;96895.53;;;5.03;59.21
60874;BME280;46715;40.642;-7.920;2023-01-29T01:41:26;96889.06;;;4.93;59.33
60874;BME280;46715;40.642;-7.920;2023-01-29T01:43:27;96886.75;;;4.85;59.68
60874;BME280;46715;40.642;-7.920;2023-01-29T01:45:29;96893.56;;;4.80;60.03
60874;BME280;46715;40.642;-7.920;2023-01-29T01:47:32;96885.38;;;4.83;59.82
60874;BME280;46715;40.642;-7.920;2023-01-29T01:49:34;96884.59;;;4.82;60.16
60874;BME280;46715;40.642;-7.920;2023-01-29T01:51:36;96889.47;;;4.72;60.26
60874;BME280;46715;40.642;-7.920;2023-01-29T01:53:49;96894.22;;;4.75;59.82
60874;BME280;46715;40.642;-7.920;2023-01-29T01:55:54;96895.75;;;4.57;60.24
60874;BME280;46715;40.642;-7.920;2023-01-29T01:57:59;96901.88;;;4.63;60.63
60874;BME280;46715;40.642;-7.920;2023-01-29T02:00:07;96892.56;;;4.81;59.80
60874;BME280;46715;40.642;-7.920;2023-01-29T02:02:19;96904.13;;;4.78;60.04
60874;BME280;46715;40.642;-7.920;2023-01-29T02:04:41;96897.28;;;4.65;60.47
60874;BME280;46715;40.642;-7.920;2023-01-29T02:07:04;96900.38;;;4.55;60.72
60874;BME280;46715;40.642;-7.920;2023-01-29T02:09:26;96894.22;;;4.50;61.06
60874;BME280;46715;40.642;-7.920;2023-01-29T02:11:35;96894.31;;;4.43;61.09
60874;BME280;46715;40.642;-7.920;2023-01-29T02:13:36;96889.91;;;4.43;61.03
60874;BME280;46715;40.642;-7.920;2023-01-29T02:15:37;96883.53;;;4.46;61.11
60874;BME280;46715;40.642;-7.920;2023-01-29T02:17:47;96900.81;;;4.46;61.08
60874;BME280;46715;40.642;-7.920;2023-01-29T02:19:57;96897.97;;;4.54;60.73
60874;BME280;46715;40.642;-7.920;2023-01-29T02:24:10;96894.66;;;4.47;61.08
60874;BME280;46715;40.642;-7.920;2023-01-29T02:26:34;96900.69;;;4.40;61.05
60874;BME280;46715;40.642;-7.920;2023-01-29T02:28:44;96896.25;;;4.48;61.12
60874;BME280;46715;40.642;-7.920;2023-01-29T02:33:12;96893.28;;;4.44;61.10
60874;BME280;46715;40.642;-7.920;2023-01-29T02:35:22;96895.13;;;4.37;61.30
60874;BME280;46715;40.642;-7.920;2023-01-29T02:37:34;96893.72;;;4.41;61.11
60874;BME280;46715;40.642;-7.920;2023-01-29T02:42:11;96893.34;;;4.37;61.35
60874;BME280;46715;40.642;-7.920;2023-01-29T02:46:24;96867.00;;;4.29;62.05
60874;BME280;46715;40.642;-7.920;2023-01-29T02:48:38;96872.97;;;4.29;61.67
60874;BME280;46715;40.642;-7.920;2023-01-29T02:50:41;96878.34;;;4.28;61.71
60874;BME280;46715;40.642;-7.920;2023-01-29T02:52:45;96879.63;;;4.37;61.83
60874;BME280;46715;40.642;-7.920;2023-01-29T02:55:24;96879.06;;;4.35;61.99
60874;BME280;46715;40.642;-7.920;2023-01-29T02:57:21;96870.75;;;4.33;61.77
60874;BME280;46715;40.642;-7.920;2023-01-29T02:59:40;96870.03;;;4.44;61.76
60874;BME280;46715;40.642;-7.920;2023-01-29T03:01:47;96867.94;;;4.34;61.81
60874;BME280;46715;40.642;-7.920;2023-01-29T03:03:52;96869.53;;;4.35;61.85
60874;BME280;46715;40.642;-7.920;2023-01-29T03:08:01;96856.41;;;4.37;62.01
60874;BME280;46715;40.642;-7.920;2023-01-29T03:12:12;96855.16;;;4.46;61.79
60874;BME280;46715;40.642;-7.920;2023-01-29T03:14:33;96851.50;;;4.29;62.19
60874;BME280;46715;40.642;-7.920;2023-01-29T03:16:54;96856.31;;;4.25;62.23
60874;BME280;46715;40.642;-7.920;2023-01-29T03:18:57;96858.81;;;4.32;62.56
60874;BME280;46715;40.642;-7.920;2023-01-29T03:21:02;96849.09;;;4.34;62.10
60874;BME280;46715;40.642;-7.920;2023-01-29T03:23:26;96844.41;;;4.24;62.21
60874;BME280;46715;40.642;-7.920;2023-01-29T03:25:46;96856.66;;;4.29;62.48
60874;BME280;46715;40.642;-7.920;2023-01-29T03:28:05;96862.44;;;4.05;63.13
60874;BME280;46715;40.642;-7.920;2023-01-29T03:30:26;96854.72;;;4.24;62.77
60874;BME280;46715;40.642;-7.920;2023-01-29T03:33:10;96858.25;;;4.30;62.50
60874;BME280;46715;40.642;-7.920;2023-01-29T03:35:12;96855.13;;;4.28;62.52
60874;BME280;46715;40.642;-7.920;2023-01-29T03:39:20;96853.41;;;4.15;62.97
60874;BME280;46715;40.642;-7.920;2023-01-29T03:41:27;96848.38;;;4.26;62.68
60874;BME280;46715;40.642;-7.920;2023-01-29T03:43:37;96858.31;;;4.23;62.77
60874;BME280;46715;40.642;-7.920;2023-01-29T03:45:48;96854.72;;;4.24;62.58
60874;BME280;46715;40.642;-7.920;2023-01-29T03:48:14;96852.53;;;4.28;62.52
60874;BME280;46715;40.642;-7.920;2023-01-29T03:50:23;96839.19;;;4.31;62.48
60874;BME280;46715;40.642;-7.920;2023-01-29T04:01:24;96839.63;;;4.28;62.68
60874;BME280;46715;40.642;-7.920;2023-01-29T04:03:36;96848.72;;;4.30;62.53
60874;BME280;46715;40.642;-7.920;2023-01-29T04:05:43;96845.06;;;4.19;63.07
60874;BME280;46715;40.642;-7.920;2023-01-29T04:07:55;96840.72;;;4.13;63.10
60874;BME280;46715;40.642;-7.920;2023-01-29T04:10:07;96848.47;;;4.13;63.27
60874;BME280;46715;40.642;-7.920;2023-01-29T04:12:10;96846.59;;;4.20;63.01
60874;BME280;46715;40.642;-7.920;2023-01-29T04:14:16;96845.06;;;4.19;63.24
60874;BME280;46715;40.642;-7.920;2023-01-29T04:16:22;96846.34;;;4.29;62.75
60874;BME280;46715;40.642;-7.920;2023-01-29T04:18:45;96846.59;;;4.20;63.01
60874;BME280;46715;40.642;-7.920;2023-01-29T04:20:46;96863.53;;;4.41;62.69
60874;BME280;46715;40.642;-7.920;2023-01-29T04:22:49;96849.66;;;4.36;62.37
60874;BME280;46715;40.642;-7.920;2023-01-29T04:24:50;96852.06;;;4.37;62.53
60874;BME280;46715;40.642;-7.920;2023-01-29T04:26:54;96853.97;;;4.42;62.72
60874;BME280;46715;40.642;-7.920;2023-01-29T04:31:05;96843.72;;;4.10;63.73
60874;BME280;46715;40.642;-7.920;2023-01-29T04:39:34;96840.94;;;4.12;63.72
60874;BME280;46715;40.642;-7.920;2023-01-29T04:41:52;96847.19;;;4.22;63.35
60874;BME280;46715;40.642;-7.920;2023-01-29T04:46:11;96839.69;;;4.21;63.46
60874;BME280;46715;40.642;-7.920;2023-01-29T04:48:32;96838.38;;;4.30;63.60
60874;BME280;46715;40.642;-7.920;2023-01-29T04:52:39;96831.59;;;4.36;63.56
60874;BME280;46715;40.642;-7.920;2023-01-29T04:56:53;96837.81;;;4.28;63.40
60874;BME280;46715;40.642;-7.920;2023-01-29T04:59:03;96839.63;;;4.28;63.69
60874;BME280;46715;40.642;-7.920;2023-01-29T05:01:07;96841.41;;;4.27;63.45
60874;BME280;46715;40.642;-7.920;2023-01-29T05:03:12;96836.75;;;4.10;64.18
60874;BME280;46715;40.642;-7.920;2023-01-29T05:05:13;96846.31;;;4.10;64.56
60874;BME280;46715;40.642;-7.920;2023-01-29T05:07:16;96834.03;;;4.05;64.39
60874;BME280;46715;40.642;-7.920;2023-01-29T05:09:17;96837.41;;;4.06;64.56
60874;BME280;46715;40.642;-7.920;2023-01-29T05:11:19;96832.25;;;4.06;64.47
60874;BME280;46715;40.642;-7.920;2023-01-29T05:13:19;96843.81;;;3.97;64.72
60874;BME280;46715;40.642;-7.920;2023-01-29T05:15:22;96842.53;;;3.81;65.70
60874;BME280;46715;40.642;-7.920;2023-01-29T05:17:24;96844.97;;;4.01;64.63
60874;BME280;46715;40.642;-7.920;2023-01-29T05:19:25;96837.09;;;3.96;65.20
60874;BME280;46715;40.642;-7.920;2023-01-29T05:21:26;96847.56;;;4.01;65.00
60874;BME280;46715;40.642;-7.920;2023-01-29T05:23:27;96838.78;;;4.08;64.59
60874;BME280;46715;40.642;-7.920;2023-01-29T05:25:28;96837.91;;;4.15;64.31
60874;BME280;46715;40.642;-7.920;2023-01-29T05:27:30;96845.56;;;4.03;64.76
60874;BME280;46715;40.642;-7.920;2023-01-29T05:29:53;96847.72;;;4.06;64.62
60874;BME280;46715;40.642;-7.920;2023-01-29T05:31:55;96845.63;;;3.96;65.37
60874;BME280;46715;40.642;-7.920;2023-01-29T05:33:56;96840.19;;;3.79;66.07
60874;BME280;46715;40.642;-7.920;2023-01-29T05:35:59;96853.41;;;3.89;65.59
60874;BME280;46715;40.642;-7.920;2023-01-29T05:38:00;96859.41;;;3.83;66.12
60874;BME280;46715;40.642;-7.920;2023-01-29T05:40:00;96862.97;;;3.82;66.23
60874;BME280;46715;40.642;-7.920;2023-01-29T05:42:01;96870.13;;;3.80;65.84
60874;BME280;46715;40.642;-7.920;2023-01-29T05:44:08;96868.66;;;3.91;65.52
60874;BME280;46715;40.642;-7.920;2023-01-29T05:46:09;96860.75;;;3.86;65.37
60874;BME280;46715;40.642;-7.920;2023-01-29T05:48:10;96863.78;;;3.76;66.06
60874;BME280;46715;40.642;-7.920;2023-01-29T05:50:10;96863.94;;;3.88;65.77
60874;BME280;46715;40.642;-7.920;2023-01-29T05:52:11;96864.66;;;3.95;65.56
60874;BME280;46715;40.642;-7.920;2023-01-29T05:54:12;96870.88;;;3.87;65.46
60874;BME280;46715;40.642;-7.920;2023-01-29T05:56:13;96884.59;;;3.81;66.03
60874;BME280;46715;40.642;-7.920;2023-01-29T05:58:13;96886.81;;;3.78;66.14
60874;BME280;46715;40.642;-7.920;2023-01-29T06:00:14;96909.94;;;3.91;65.64
60874;BME280;46715;40.642;-7.920;2023-01-29T06:02:15;96889.69;;;3.95;65.37
60874;BME280;46715;40.642;-7.920;2023-01-29T06:04:15;96899.78;;;3.96;65.18
60874;BME280;46715;40.642;-7.920;2023-01-29T06:06:16;96904.97;;;3.96;65.53
60874;BME280;46715;40.642;-7.920;2023-01-29T06:08:17;96901.63;;;3.89;65.53
60874;BME280;46715;40.642;-7.920;2023-01-29T06:10:17;96902.03;;;3.86;65.46
60874;BME280;46715;40.642;-7.920;2023-01-29T06:12:18;96898.91;;;3.77;66.00
60874;BME280;46715;40.642;-7.920;2023-01-29T06:14:18;96897.31;;;3.76;65.66
60874;BME280;46715;40.642;-7.920;2023-01-29T06:16:20;96899.28;;;3.81;65.91
60874;BME280;46715;40.642;-7.920;2023-01-29T06:18:20;96902.78;;;3.61;66.73
60874;BME280;46715;40.642;-7.920;2023-01-29T06:20:21;96899.69;;;3.46;66.80
60874;BME280;46715;40.642;-7.920;2023-01-29T06:22:22;96904.28;;;3.30;67.99
60874;BME280;46715;40.642;-7.920;2023-01-29T06:24:23;96907.06;;;3.22;68.25
60874;BME280;46715;40.642;-7.920;2023-01-29T06:26:23;96906.50;;;3.20;67.99
60874;BME280;46715;40.642;-7.920;2023-01-29T06:28:24;96915.41;;;3.24;67.84
60874;BME280;46715;40.642;-7.920;2023-01-29T06:30:24;96918.22;;;3.16;67.72
60874;BME280;46715;40.642;-7.920;2023-01-29T06:32:26;96921.44;;;2.98;69.25
60874;BME280;46715;40.642;-7.920;2023-01-29T06:34:26;96922.63;;;2.88;69.14
60874;BME280;46715;40.642;-7.920;2023-01-29T06:36:27;96922.41;;;2.90;69.85
60874;BME280;46715;40.642;-7.920;2023-01-29T06:38:27;96925.59;;;2.92;69.47
60874;BME280;46715;40.642;-7.920;2023-01-29T06:40:28;96926.78;;;2.96;68.93
60874;BME280;46715;40.642;-7.920;2023-01-29T06:42:29;96930.13;;;3.10;68.45
60874;BME280;46715;40.642;-7.920;2023-01-29T06:44:29;96933.47;;;3.17;68.55
60874;BME280;46715;40.642;-7.920;2023-01-29T06:46:30;96927.75;;;3.15;68.08
60874;BME280;46715;40.642;-7.920;2023-01-29T06:48:31;96929.13;;;3.11;68.22
60874;BME280;46715;40.642;-7.920;2023-01-29T06:50:32;96927.56;;;3.03;68.46
60874;BME280;46715;40.642;-7.920;2023-01-29T06:52:33;96928.72;;;3.14;68.76
60874;BME280;46715;40.642;-7.920;2023-01-29T06:54:33;96930.13;;;3.10;68.16
60874;BME280;46715;40.642;-7.920;2023-01-29T06:56:34;96939.25;;;3.06;68.47
60874;BME280;46715;40.642;-7.920;2023-01-29T06:58:35;96940.44;;;3.10;68.91
60874;BME280;46715;40.642;-7.920;2023-01-29T07:00:36;96930.53;;;3.07;68.78
60874;BME280;46715;40.642;-7.920;2023-01-29T07:02:37;96933.13;;;3.00;68.19
60874;BME280;46715;40.642;-7.920;2023-01-29T07:04:38;96930.34;;;3.02;68.62
60874;BME280;46715;40.642;-7.920;2023-01-29T07:06:38;96934.72;;;2.88;69.37
60874;BME280;46715;40.642;-7.920;2023-01-29T07:08:39;96946.41;;;2.90;68.80
60874;BME280;46715;40.642;-7.920;2023-01-29T07:10:40;96946.00;;;3.00;69.33
60874;BME280;46715;40.642;-7.920;2023-01-29T07:12:40;96944.03;;;2.96;68.97
60874;BME280;46715;40.642;-7.920;2023-01-29T07:14:41;96944.63;;;2.91;68.96
60874;BME280;46715;40.642;-7.920;2023-01-29T07:16:42;96943.22;;;2.82;69.89
60874;BME280;46715;40.642;-7.920;2023-01-29T07:18:42;96945.03;;;2.88;69.53
60874;BME280;46715;40.642;-7.920;2023-01-29T07:20:43;96947.41;;;2.89;69.45
60874;BME280;46715;40.642;-7.920;2023-01-29T07:22:43;96949.78;;;2.91;69.05
60874;BME280;46715;40.642;-7.920;2023-01-29T07:24:44;96957.91;;;2.95;68.84
60874;BME280;46715;40.642;-7.920;2023-01-29T07:26:44;96958.09;;;2.80;69.57
60874;BME280;46715;40.642;-7.920;2023-01-29T07:28:45;96955.13;;;2.83;69.98
60874;BME280;46715;40.642;-7.920;2023-01-29T07:30:46;96950.75;;;2.97;69.28
60874;BME280;46715;40.642;-7.920;2023-01-29T07:32:47;96960.66;;;3.00;69.23
60874;BME280;46715;40.642;-7.920;2023-01-29T07:34:47;96959.88;;;2.93;69.65
60874;BME280;46715;40.642;-7.920;2023-01-29T07:36:48;96953.13;;;3.05;68.89
60874;BME280;46715;40.642;-7.920;2023-01-29T07:38:49;96964.22;;;2.99;68.85
60874;BME280;46715;40.642;-7.920;2023-01-29T07:40:53;96959.09;;;2.99;69.07
60874;BME280;46715;40.642;-7.920;2023-01-29T07:43:00;96966.34;;;3.22;68.46
60874;BME280;46715;40.642;-7.920;2023-01-29T07:45:02;96955.47;;;3.20;68.11
60874;BME280;46715;40.642;-7.920;2023-01-29T07:47:02;96953.66;;;3.20;67.83
60874;BME280;46715;40.642;-7.920;2023-01-29T07:49:03;96949.31;;;3.28;67.71
60874;BME280;46715;40.642;-7.920;2023-01-29T07:51:04;96953.63;;;3.40;67.79
60874;BME280;46715;40.642;-7.920;2023-01-29T07:53:05;96953.00;;;3.52;67.02
60874;BME280;46715;40.642;-7.920;2023-01-29T07:55:05;96956.13;;;3.61;66.91
60874;BME280;46715;40.642;-7.920;2023-01-29T07:57:06;96954.50;;;3.66;66.35
60874;BME280;46715;40.642;-7.920;2023-01-29T07:59:06;96954.97;;;3.50;67.22
60874;BME280;46715;40.642;-7.920;2023-01-29T08:01:07;96950.19;;;3.60;66.70
60874;BME280;46715;40.642;-7.920;2023-01-29T08:03:15;96950.88;;;3.81;66.10
60874;BME280;46715;40.642;-7.920;2023-01-29T08:05:16;96947.97;;;4.02;65.36
60874;BME280;46715;40.642;-7.920;2023-01-29T08:07:16;96956.03;;;3.87;65.48
60874;BME280;46715;40.642;-7.920;2023-01-29T08:09:17;96957.81;;;3.80;66.12
60874;BME280;46715;40.642;-7.920;2023-01-29T08:11:17;96951.66;;;3.81;65.82
60874;BME280;46715;40.642;-7.920;2023-01-29T08:13:18;96945.97;;;4.11;64.91
60874;BME280;46715;40.642;-7.920;2023-01-29T08:15:19;96954.00;;;4.28;64.57
60874;BME280;46715;40.642;-7.920;2023-01-29T08:17:19;96954.34;;;4.32;63.95
60874;BME280;46715;40.642;-7.920;2023-01-29T08:19:20;96954.66;;;4.92;62.34
60874;BME280;46715;40.642;-7.920;2023-01-29T08:21:21;96955.50;;;5.49;60.13
60874;BME280;46715;40.642;-7.920;2023-01-29T08:23:22;96959.81;;;6.04;58.44
60874;BME280;46715;40.642;-7.920;2023-01-29T08:25:22;96952.59;;;6.48;56.51
60874;BME280;46715;40.642;-7.920;2023-01-29T08:27:23;96957.94;;;7.12;55.20
60874;BME280;46715;40.642;-7.920;2023-01-29T08:29:23;96945.41;;;7.62;52.81
60874;BME280;46715;40.642;-7.920;2023-01-29T08:31:24;96948.75;;;7.74;52.85
60874;BME280;46715;40.642;-7.920;2023-01-29T08:33:25;96949.34;;;8.68;49.92
60874;BME280;46715;40.642;-7.920;2023-01-29T08:35:27;96939.72;;;9.08;48.24
60874;BME280;46715;40.642;-7.920;2023-01-29T08:37:28;96953.03;;;9.50;47.50
60874;BME280;46715;40.642;-7.920;2023-01-29T08:39:29;96946.09;;;9.17;47.47
60874;BME280;46715;40.642;-7.920;2023-01-29T08:41:29;96952.84;;;9.35;46.92
60874;BME280;46715;40.642;-7.920;2023-01-29T08:43:30;96952.91;;;9.40;46.92
60874;BME280;46715;40.642;-7.920;2023-01-29T08:45:34;96954.72;;;9.62;46.09
60874;BME280;46715;40.642;-7.920;2023-01-29T08:47:35;96951.34;;;9.61;45.86
60874;BME280;46715;40.642;-7.920;2023-01-29T08:49:35;96944.59;;;10.42;44.26
60874;BME280;46715;40.642;-7.920;2023-01-29T08:51:36;96940.72;;;10.82;43.52
60874;BME280;46715;40.642;-7.920;2023-01-29T08:53:37;96943.91;;;11.42;42.50
60874;BME280;46715;40.642;-7.920;2023-01-29T08:55:38;96938.69;;;11.42;41.46
60874;BME280;46715;40.642;-7.920;2023-01-29T08:57:39;96943.63;;;10.53;43.25
60874;BME280;46715;40.642;-7.920;2023-01-29T08:59:40;96936.34;;;10.55;42.97
60874;BME280;46715;40.642;-7.920;2023-01-29T09:01:41;96935.19;;;10.73;43.04
60874;BME280;46715;40.642;-7.920;2023-01-29T09:03:41;96945.91;;;10.17;43.86
60874;BME280;46715;40.642;-7.920;2023-01-29T09:05:43;96954.50;;;10.78;42.46
60874;BME280;46715;40.642;-7.920;2023-01-29T09:07:45;96953.94;;;10.70;42.64
60874;BME280;46715;40.642;-7.920;2023-01-29T09:09:46;96953.66;;;10.67;42.95
60874;BME280;46715;40.642;-7.920;2023-01-29T09:11:47;96943.41;;;10.98;42.24
60874;BME280;46715;40.642;-7.920;2023-01-29T09:13:48;96962.13;;;10.89;42.15
60874;BME280;46715;40.642;-7.920;2023-01-29T09:15:48;96965.59;;;11.48;41.53
60874;BME280;46715;40.642;-7.920;2023-01-29T09:17:49;96957.19;;;11.36;41.54
60874;BME280;46715;40.642;-7.920;2023-01-29T09:19:50;96953.88;;;11.56;41.20
60874;BME280;46715;40.642;-7.920;2023-01-29T09:21:53;96961.88;;;10.86;41.97
60874;BME280;46715;40.642;-7.920;2023-01-29T09:23:53;96968.25;;;11.58;41.65
60874;BME280;46715;40.642;-7.920;2023-01-29T09:25:54;96972.16;;;11.51;41.23
60874;BME280;46715;40.642;-7.920;2023-01-29T09:27:54;96966.81;;;11.30;41.39
60874;BME280;46715;40.642;-7.920;2023-01-29T09:29:55;96973.00;;;11.14;41.94
60874;BME280;46715;40.642;-7.920;2023-01-29T09:31:56;96974.50;;;11.52;41.55
60874;BME280;46715;40.642;-7.920;2023-01-29T09:33:56;96977.59;;;10.96;42.28
60874;BME280;46715;40.642;-7.920;2023-01-29T09:35:57;96971.03;;;10.01;44.54
60874;BME280;46715;40.642;-7.920;2023-01-29T09:37:57;96986.59;;;9.47;46.02
60874;BME280;46715;40.642;-7.920;2023-01-29T09:39:58;97000.88;;;8.42;48.07
60874;BME280;46715;40.642;-7.920;2023-01-29T09:44:36;96983.97;;;6.94;52.34
60874;BME280;46715;40.642;-7.920;2023-01-29T09:46:42;96979.13;;;7.09;52.90
60874;BME280;46715;40.642;-7.920;2023-01-29T09:48:44;96990.72;;;6.95;53.02
60874;BME280;46715;40.642;-7.920;2023-01-29T09:50:46;96987.81;;;6.79;54.07
60874;BME280;46715;40.642;-7.920;2023-01-29T09:52:50;96985.34;;;6.85;53.47
60874;BME280;46715;40.642;-7.920;2023-01-29T09:57:06;97001.31;;;6.81;53.91
60874;BME280;46715;40.642;-7.920;2023-01-29T09:59:12;96983.75;;;6.95;53.78
60874;BME280;46715;40.642;-7.920;2023-01-29T10:07:42;96991.41;;;7.02;54.08
60874;BME280;46715;40.642;-7.920;2023-01-29T10:14:28;96990.03;;;7.35;53.30
60874;BME280;46715;40.642;-7.920;2023-01-29T10:25:04;96988.91;;;7.31;52.64
60874;BME280;46715;40.642;-7.920;2023-01-29T10:27:07;96982.78;;;7.61;52.71
60874;BME280;46715;40.642;-7.920;2023-01-29T10:29:13;96988.13;;;7.42;52.70
60874;BME280;46715;40.642;-7.920;2023-01-29T10:34:02;96970.25;;;7.58;52.36
60874;BME280;46715;40.642;-7.920;2023-01-29T10:35:45;96976.22;;;7.70;52.99
60874;BME280;46715;40.642;-7.920;2023-01-29T10:37:53;96962.56;;;7.75;51.38
60874;BME280;46715;40.642;-7.920;2023-01-29T10:39:54;96979.97;;;7.62;52.27
60874;BME280;46715;40.642;-7.920;2023-01-29T10:46:09;96983.22;;;7.58;50.98
60874;BME280;46715;40.642;-7.920;2023-01-29T10:54:26;96989.56;;;7.50;51.75
60874;BME280;46715;40.642;-7.920;2023-01-29T10:56:35;96992.94;;;7.62;52.03
60874;BME280;46715;40.642;-7.920;2023-01-29T11:00:41;96991.81;;;7.46;51.31
60874;BME280;46715;40.642;-7.920;2023-01-29T11:02:42;97001.84;;;7.55;52.11
60874;BME280;46715;40.642;-7.920;2023-01-29T11:04:44;97001.25;;;7.76;51.36
60874;BME280;46715;40.642;-7.920;2023-01-29T11:06:45;97003.97;;;7.70;50.47
60874;BME280;46715;40.642;-7.920;2023-01-29T11:13:21;96995.94;;;8.12;50.66
60874;BME280;46715;40.642;-7.920;2023-01-29T11:15:25;96982.69;;;8.13;50.50
60874;BME280;46715;40.642;-7.920;2023-01-29T11:17:27;96965.69;;;8.06;50.25
60874;BME280;46715;40.642;-7.920;2023-01-29T11:19:38;96974.59;;;8.10;50.23
60874;BME280;46715;40.642;-7.920;2023-01-29T11:21:59;96978.09;;;8.32;50.39
60874;BME280;46715;40.642;-7.920;2023-01-29T11:24:12;96986.19;;;8.48;50.05
60874;BME280;46715;40.642;-7.920;2023-01-29T11:26:17;96976.75;;;8.30;49.47
60874;BME280;46715;40.642;-7.920;2023-01-29T11:30:49;96965.63;;;8.63;48.66
60874;BME280;46715;40.642;-7.920;2023-01-29T11:37:14;96941.44;;;8.80;48.51
60874;BME280;46715;40.642;-7.920;2023-01-29T11:39:19;96934.03;;;8.72;48.12
60874;BME280;46715;40.642;-7.920;2023-01-29T11:41:20;96942.63;;;8.89;47.80
60874;BME280;46715;40.642;-7.920;2023-01-29T11:47:25;96936.00;;;8.98;48.25
60874;BME280;46715;40.642;-7.920;2023-01-29T11:49:29;96921.25;;;9.04;47.66
60874;BME280;46715;40.642;-7.920;2023-01-29T11:51:31;96919.25;;;9.11;47.20
60874;BME280;46715;40.642;-7.920;2023-01-29T11:55:34;96914.78;;;9.29;46.87
60874;BME280;46715;40.642;-7.920;2023-01-29T11:57:36;96904.13;;;9.08;47.31
60874;BME280;46715;40.642;-7.920;2023-01-29T11:59:41;96886.19;;;9.34;47.48
60874;BME280;46715;40.642;-7.920;2023-01-29T12:01:43;96891.97;;;9.36;46.29
60874;BME280;46715;40.642;-7.920;2023-01-29T12:03:53;96877.19;;;9.42;46.39
60874;BME280;46715;40.642;-7.920;2023-01-29T12:05:55;96891.28;;;9.46;45.49
60874;BME280;46715;40.642;-7.920;2023-01-29T12:07:57;96896.91;;;9.60;45.82
60874;BME280;46715;40.642;-7.920;2023-01-29T12:09:59;96892.28;;;9.67;46.69
60874;BME280;46715;40.642;-7.920;2023-01-29T12:12:15;96910.81;;;9.70;44.81
60874;BME280;46715;40.642;-7.920;2023-01-29T12:14:34;96899.66;;;9.75;45.05
60874;BME280;46715;40.642;-7.920;2023-01-29T12:18:40;96902.59;;;9.57;46.14
60874;BME280;46715;40.642;-7.920;2023-01-29T12:20:52;96902.22;;;9.70;45.69
60874;BME280;46715;40.642;-7.920;2023-01-29T12:23:02;96904.78;;;9.65;45.37
60874;BME280;46715;40.642;-7.920;2023-01-29T12:25:08;96887.28;;;9.87;45.59
60874;BME280;46715;40.642;-7.920;2023-01-29T12:27:18;96887.13;;;9.99;45.22
60874;BME280;46715;40.642;-7.920;2023-01-29T12:29:36;96899.41;;;10.04;45.72
60874;BME280;46715;40.642;-7.920;2023-01-29T12:38:32;96882.41;;;9.96;44.37
60874;BME280;46715;40.642;-7.920;2023-01-29T12:40:40;96878.47;;;9.94;44.82
60874;BME280;46715;40.642;-7.920;2023-01-29T12:42:44;96872.28;;;10.00;43.89